Time;durP1;ratioP1;P1;durP2;ratioP2;P2;SDS_P1;SDS_P2;PMS_P1;PMS_P2;Temp;Humidity;BMP_temperature;BMP_pressure;BME280_temperature;BME280_humidity;BME280_pressure;Samples;Min_cycle;Max_cycle;Signal;HPM_P1;HPM_P2
2021/09/01 00:00:26;;;;;;;306.77;290.50;;;12.40;99.90;;;;;;6278147;22;20407;-84
2021/09/01 00:02:54;;;;;;;313.07;295.80;;;12.50;99.90;;;;;;6277606;22;20478;-83
2021/09/01 00:05:21;;;;;;;309.10;293.90;;;12.60;99.90;;;;;;6278199;22;20391;-84
2021/09/01 00:07:48;;;;;;;310.77;296.17;;;12.70;99.90;;;;;;6288381;22;20437;-84
2021/09/01 00:10:15;;;;;;;315.97;300.13;;;12.80;99.90;;;;;;6277944;22;20462;-86
2021/09/01 00:12:43;;;;;;;316.07;298.63;;;12.90;99.90;;;;;;6287068;22;20807;-83
2021/09/01 00:15:13;;;;;;;316.77;300.70;;;12.90;99.90;;;;;;6277888;22;20481;-83
2021/09/01 00:17:40;;;;;;;320.63;304.37;;;13.00;99.90;;;;;;6278101;22;20442;-84
2021/09/01 00:20:10;;;;;;;323.63;307.03;;;13.10;99.90;;;;;;6277963;22;20406;-84
2021/09/01 00:22:37;;;;;;;322.57;306.27;;;13.10;99.90;;;;;;6277682;22;20437;-84
2021/09/01 00:25:06;;;;;;;327.80;310.10;;;13.20;99.90;;;;;;6287250;22;20427;-85
2021/09/01 00:27:33;;;;;;;329.23;312.43;;;13.20;99.90;;;;;;6286436;22;20434;-85
2021/09/01 00:30:00;;;;;;;331.33;313.40;;;13.40;99.90;;;;;;6277466;22;20438;-85
2021/09/01 00:32:28;;;;;;;335.07;318.07;;;13.40;99.90;;;;;;6287894;22;20806;-85
2021/09/01 00:34:55;;;;;;;333.93;315.90;;;13.50;99.90;;;;;;6277739;22;20402;-84
2021/09/01 00:37:22;;;;;;;317.53;301.77;;;13.60;99.90;;;;;;6287810;22;20756;-84
2021/09/01 00:39:51;;;;;;;321.30;305.53;;;13.60;99.90;;;;;;6277810;22;20454;-84
2021/09/01 00:42:19;;;;;;;313.30;296.30;;;13.60;99.90;;;;;;6276403;22;20410;-84
2021/09/01 00:44:47;;;;;;;305.63;289.50;;;13.70;99.90;;;;;;6277806;22;20426;-85
2021/09/01 00:47:17;;;;;;;294.13;279.27;;;13.70;99.90;;;;;;6287518;22;20434;-86
2021/09/01 00:49:46;;;;;;;284.30;269.57;;;13.70;99.90;;;;;;6287915;22;20489;-85
2021/09/01 00:52:14;;;;;;;269.23;255.23;;;13.80;99.90;;;;;;6277752;22;20434;-86
2021/09/01 00:54:41;;;;;;;264.80;250.90;;;13.80;99.90;;;;;;6287512;22;20434;-85
2021/09/01 00:57:09;;;;;;;250.33;236.83;;;13.80;99.90;;;;;;6276236;22;20478;-84
2021/09/01 00:59:39;;;;;;;238.87;225.57;;;13.80;99.90;;;;;;6287659;22;20402;-85
2021/09/01 01:02:06;;;;;;;227.70;215.87;;;13.80;99.90;;;;;;6277651;22;20727;-85
2021/09/01 01:04:35;;;;;;;210.60;199.40;;;13.80;99.90;;;;;;6287554;22;20441;-85
2021/09/01 01:07:04;;;;;;;204.30;193.57;;;13.80;99.90;;;;;;6287757;22;20918;-85
2021/09/01 01:09:32;;;;;;;195.67;184.83;;;13.80;99.90;;;;;;6277361;22;20436;-85
2021/09/01 01:12:01;;;;;;;184.23;174.23;;;13.80;99.90;;;;;;6276220;22;20441;-86
2021/09/01 01:14:28;;;;;;;178.30;168.10;;;13.80;99.90;;;;;;6277454;22;20776;-85
2021/09/01 01:16:55;;;;;;;171.97;162.57;;;13.90;99.90;;;;;;6277088;22;20413;-85
2021/09/01 01:19:22;;;;;;;170.83;161.30;;;13.80;99.90;;;;;;6287594;22;20418;-85
2021/09/01 01:21:49;;;;;;;166.20;157.03;;;13.90;99.90;;;;;;6287140;22;20440;-86
2021/09/01 01:24:18;;;;;;;167.73;158.43;;;13.90;99.90;;;;;;6276928;22;20408;-86
2021/09/01 01:26:46;;;;;;;164.97;155.47;;;14.00;99.90;;;;;;6286220;22;20423;-86
2021/09/01 01:29:13;;;;;;;163.60;154.37;;;14.00;99.90;;;;;;6287493;22;20754;-86
2021/09/01 01:31:40;;;;;;;158.00;149.40;;;13.90;99.90;;;;;;6287539;22;20501;-86
2021/09/01 01:34:13;;;;;;;158.80;149.90;;;13.90;99.90;;;;;;6277217;22;20482;-84
2021/09/01 01:36:39;;;;;;;155.67;146.57;;;14.00;99.90;;;;;;6286883;22;20430;-85
2021/09/01 01:39:07;;;;;;;151.80;142.93;;;14.00;99.90;;;;;;6287406;22;20501;-83
2021/09/01 01:41:34;;;;;;;153.07;144.50;;;14.00;99.90;;;;;;6275795;22;20434;-85
2021/09/01 01:44:02;;;;;;;153.40;145.17;;;14.00;99.90;;;;;;6277147;22;20441;-85
2021/09/01 01:46:29;;;;;;;150.10;141.43;;;14.00;99.90;;;;;;6287393;22;20407;-86
2021/09/01 01:48:56;;;;;;;157.60;147.50;;;14.00;99.90;;;;;;6277027;22;20398;-84
2021/09/01 01:51:23;;;;;;;147.87;139.77;;;14.00;99.90;;;;;;6287284;22;20403;-85
2021/09/01 01:53:49;;;;;;;151.97;143.00;;;14.00;99.90;;;;;;6277014;22;20430;-85
2021/09/01 01:56:16;;;;;;;152.33;141.63;;;14.00;99.90;;;;;;6286010;22;20456;-85
2021/09/01 01:58:43;;;;;;;141.47;133.30;;;14.00;99.90;;;;;;6287226;22;20444;-85
2021/09/01 02:01:11;;;;;;;149.73;139.93;;;14.10;99.90;;;;;;6276901;22;20401;-85
2021/09/01 02:03:38;;;;;;;145.83;137.73;;;14.10;99.90;;;;;;6276659;22;20399;-83
2021/09/01 02:06:05;;;;;;;137.70;129.40;;;14.00;99.90;;;;;;6286830;22;20399;-85
2021/09/01 02:08:32;;;;;;;139.23;131.70;;;14.10;99.90;;;;;;6276417;22;20469;-85
2021/09/01 02:10:59;;;;;;;138.93;131.40;;;14.10;99.90;;;;;;6275571;22;20431;-85
2021/09/01 02:13:25;;;;;;;141.10;133.30;;;14.10;99.90;;;;;;6276898;22;20478;-85
2021/09/01 02:15:52;;;;;;;140.53;132.67;;;14.10;99.90;;;;;;6276600;22;20490;-84
2021/09/01 02:18:21;;;;;;;136.40;128.67;;;14.10;99.90;;;;;;6276654;22;20441;-85
2021/09/01 02:20:47;;;;;;;138.17;130.33;;;14.00;99.90;;;;;;6276812;22;20906;-85
2021/09/01 02:23:14;;;;;;;140.10;132.37;;;14.10;99.90;;;;;;6276332;22;20477;-85
2021/09/01 02:25:41;;;;;;;136.40;128.77;;;14.10;99.90;;;;;;6275397;22;20403;-85
2021/09/01 02:28:08;;;;;;;137.13;129.47;;;14.10;99.90;;;;;;6277036;22;20466;-83
2021/09/01 02:30:35;;;;;;;138.73;131.50;;;14.10;99.90;;;;;;6276631;22;20456;-84
2021/09/01 02:33:02;;;;;;;138.27;130.27;;;14.10;99.90;;;;;;6286429;22;20465;-85
2021/09/01 02:35:30;;;;;;;132.47;125.50;;;14.10;99.90;;;;;;6276347;22;20452;-85
2021/09/01 02:37:57;;;;;;;137.50;130.20;;;14.10;99.90;;;;;;6276652;22;20473;-85
2021/09/01 02:40:24;;;;;;;138.20;129.87;;;14.10;99.90;;;;;;6276232;22;20441;-86
2021/09/01 02:42:51;;;;;;;138.13;130.10;;;14.10;99.90;;;;;;6286372;22;20416;-85
2021/09/01 02:45:18;;;;;;;134.07;126.57;;;14.20;99.90;;;;;;6286974;22;20825;-86
2021/09/01 02:47:46;;;;;;;134.63;127.33;;;14.10;99.90;;;;;;6276230;22;20532;-85
2021/09/01 02:50:14;;;;;;;126.63;119.53;;;14.10;99.90;;;;;;6276255;22;20426;-86
2021/09/01 02:52:43;;;;;;;122.97;116.10;;;14.10;99.90;;;;;;6276147;22;20435;-85
2021/09/01 02:55:11;;;;;;;116.70;110.50;;;14.10;99.90;;;;;;6276695;22;20402;-85
2021/09/01 02:57:38;;;;;;;122.43;115.53;;;14.10;99.90;;;;;;6285060;22;20493;-85
2021/09/01 03:00:06;;;;;;;116.80;110.67;;;14.10;99.90;;;;;;6286641;22;20456;-83
2021/09/01 03:02:33;;;;;;;113.30;107.00;;;14.10;99.90;;;;;;6276214;22;20969;-85
2021/09/01 03:05:00;;;;;;;118.80;112.07;;;14.10;99.90;;;;;;6286673;22;20787;-84
2021/09/01 03:07:27;;;;;;;114.63;108.00;;;14.10;99.90;;;;;;6276476;22;21004;-85
2021/09/01 03:09:56;;;;;;;113.03;106.77;;;14.10;99.90;;;;;;6276383;22;20500;-83
2021/09/01 03:12:23;;;;;;;116.53;110.30;;;14.10;99.90;;;;;;6275116;22;20440;-84
2021/09/01 03:14:50;;;;;;;111.87;105.70;;;14.10;99.90;;;;;;6276419;22;20426;-84
2021/09/01 03:17:17;;;;;;;112.00;106.10;;;14.10;99.90;;;;;;6286554;22;20433;-84
2021/09/01 03:19:44;;;;;;;111.80;106.17;;;14.20;99.90;;;;;;6287003;22;20530;-77
2021/09/01 03:22:11;;;;;;;111.83;105.77;;;14.10;99.90;;;;;;6275789;22;20438;-81
2021/09/01 03:24:39;;;;;;;109.23;103.40;;;14.10;99.90;;;;;;6286588;22;20402;-82
2021/09/01 03:27:08;;;;;;;104.47;99.03;;;14.20;99.90;;;;;;6274503;22;20406;-79
2021/09/01 03:29:35;;;;;;;105.40;99.70;;;14.20;99.90;;;;;;6286349;22;20715;-81
2021/09/01 03:32:01;;;;;;;104.70;99.40;;;14.10;99.90;;;;;;6276241;22;20399;-81
2021/09/01 03:34:28;;;;;;;107.37;101.10;;;14.10;99.90;;;;;;6276334;22;20450;-81
2021/09/01 03:36:55;;;;;;;105.23;98.90;;;14.10;99.90;;;;;;6286379;22;20413;-80
2021/09/01 03:39:22;;;;;;;97.40;92.20;;;14.20;99.90;;;;;;6286365;22;20421;-83
2021/09/01 03:41:49;;;;;;;97.73;92.13;;;14.10;99.90;;;;;;6274832;22;20426;-85
2021/09/01 03:44:20;;;;;;;91.73;87.33;;;14.10;99.90;;;;;;6276402;22;20454;-84
2021/09/01 03:46:47;;;;;;;89.27;84.33;;;14.20;99.90;;;;;;6275979;22;20955;-81
2021/09/01 03:49:17;;;;;;;87.80;83.70;;;14.10;99.90;;;;;;6276247;22;20492;-84
2021/09/01 03:51:44;;;;;;;90.30;85.80;;;14.10;99.90;;;;;;6276031;22;20399;-84
2021/09/01 03:54:11;;;;;;;95.60;89.90;;;14.10;99.90;;;;;;6286151;22;20463;-83
2021/09/01 03:56:38;;;;;;;93.10;87.77;;;14.20;99.90;;;;;;6274861;22;20398;-84
2021/09/01 03:59:06;;;;;;;92.07;87.00;;;14.10;99.90;;;;;;6276224;22;20445;-85
2021/09/01 04:01:34;;;;;;;82.03;75.63;;;14.10;99.90;;;;;;6277834;22;20394;-85
2021/09/01 04:04:01;;;;;;;82.47;77.83;;;14.10;99.90;;;;;;6278176;22;20399;-85
2021/09/01 04:06:28;;;;;;;79.20;75.00;;;14.10;99.90;;;;;;6277826;22;20477;-85
2021/09/01 04:08:55;;;;;;;73.60;69.30;;;14.10;99.90;;;;;;6288134;22;20473;-84
2021/09/01 04:11:22;;;;;;;77.03;72.43;;;14.10;99.90;;;;;;6276675;22;20399;-84
2021/09/01 04:13:49;;;;;;;76.67;72.27;;;14.20;99.90;;;;;;6288301;22;20468;-83
2021/09/01 04:16:17;;;;;;;80.67;75.87;;;14.10;99.90;;;;;;6287869;22;20471;-84
2021/09/01 04:18:45;;;;;;;79.23;74.73;;;14.20;99.90;;;;;;6277993;22;20398;-85
2021/09/01 04:21:12;;;;;;;81.10;76.33;;;14.10;99.90;;;;;;6277468;22;21113;-85
2021/09/01 04:23:39;;;;;;;81.80;77.17;;;14.10;99.90;;;;;;6277642;22;20453;-84
2021/09/01 04:26:06;;;;;;;83.97;78.73;;;14.10;99.90;;;;;;6276568;22;20482;-83
2021/09/01 04:28:33;;;;;;;79.77;75.77;;;14.10;99.90;;;;;;6277584;22;20460;-84
2021/09/01 04:31:00;;;;;;;81.03;76.50;;;14.00;99.90;;;;;;6287669;22;20435;-88
2021/09/01 04:33:27;;;;;;;83.77;77.87;;;14.10;99.90;;;;;;6277858;22;20395;-77
2021/09/01 04:35:55;;;;;;;84.53;79.43;;;14.10;99.90;;;;;;6277603;22;20394;-83
2021/09/01 04:38:22;;;;;;;85.07;80.57;;;14.20;99.90;;;;;;6287874;22;20698;-83
2021/09/01 04:40:49;;;;;;;85.90;80.20;;;14.10;99.90;;;;;;6286493;22;20433;-77
2021/09/01 04:43:15;;;;;;;88.93;83.80;;;14.10;99.90;;;;;;6277822;22;20398;-78
2021/09/01 04:45:43;;;;;;;86.83;81.53;;;14.10;99.90;;;;;;6277855;22;20405;-85
2021/09/01 04:48:10;;;;;;;82.93;78.30;;;14.10;99.90;;;;;;6277349;22;20437;-85
2021/09/01 04:50:37;;;;;;;83.10;77.90;;;14.10;99.90;;;;;;6277627;22;20703;-85
2021/09/01 04:53:05;;;;;;;78.43;74.17;;;14.10;99.90;;;;;;6277311;22;20430;-84
2021/09/01 04:55:32;;;;;;;80.10;75.63;;;14.10;99.90;;;;;;6276299;22;20437;-84
2021/09/01 04:58:00;;;;;;;77.17;72.27;;;14.10;99.90;;;;;;6277563;22;20501;-84
2021/09/01 05:00:27;;;;;;;71.30;67.20;;;14.10;99.90;;;;;;6277601;22;20405;-86
2021/09/01 05:02:54;;;;;;;69.93;65.63;;;14.10;99.90;;;;;;6277453;22;20399;-85
2021/09/01 05:05:21;;;;;;;66.87;62.97;;;14.10;99.90;;;;;;6287640;22;20762;-84
2021/09/01 05:07:48;;;;;;;63.67;59.10;;;14.30;99.90;;;;;;6277409;22;20458;-84
2021/09/01 05:10:16;;;;;;;60.80;56.97;;;14.30;99.90;;;;;;6277548;22;20434;-84
2021/09/01 05:12:49;;;;;;;64.80;60.80;;;14.10;99.90;;;;;;6275517;22;20398;-84
2021/09/01 05:15:17;;;;;;;63.53;59.63;;;14.10;99.90;;;;;;6277457;22;20485;-84
2021/09/01 05:17:44;;;;;;;57.93;53.93;;;14.30;99.90;;;;;;6287614;22;20464;-85
2021/09/01 05:20:12;;;;;;;55.20;51.00;;;14.20;99.90;;;;;;6287678;22;20430;-85
2021/09/01 05:22:45;;;;;;;49.83;46.23;;;14.20;99.90;;;;;;6287202;22;20769;-79
2021/09/01 05:25:13;;;;;;;43.77;40.80;;;14.20;99.90;;;;;;6287775;22;20395;-81
2021/09/01 05:27:43;;;;;;;45.13;42.13;;;14.30;99.90;;;;;;6275895;22;20399;-86
2021/09/01 05:30:13;;;;;;;45.70;42.73;;;14.20;99.90;;;;;;6286990;22;20474;-85
2021/09/01 05:32:43;;;;;;;43.93;40.70;;;14.30;99.90;;;;;;6287206;22;20399;-87
2021/09/01 05:35:12;;;;;;;44.30;40.70;;;14.30;99.90;;;;;;6277282;22;20882;-86
2021/09/01 05:37:40;;;;;;;44.10;40.97;;;14.40;99.90;;;;;;6287018;22;20420;-85
2021/09/01 05:40:09;;;;;;;40.63;37.57;;;14.40;99.90;;;;;;6276844;22;20460;-86
2021/09/01 05:42:36;;;;;;;42.77;39.83;;;14.40;99.90;;;;;;6275548;22;20480;-85
2021/09/01 05:45:07;;;;;;;44.10;40.60;;;14.40;99.90;;;;;;6276904;22;20434;-86
2021/09/01 05:47:36;;;;;;;44.10;40.80;;;14.50;99.90;;;;;;6277208;22;20434;-82
2021/09/01 05:50:03;;;;;;;40.43;36.53;;;14.50;99.90;;;;;;6287275;22;20434;-87
2021/09/01 05:52:30;;;;;;;34.33;31.63;;;14.60;99.90;;;;;;6276858;22;20464;-86
2021/09/01 05:55:00;;;;;;;34.17;31.57;;;14.80;99.90;;;;;;6287225;22;20497;-86
2021/09/01 05:57:35;;;;;;;33.67;30.97;;;14.60;99.90;;;;;;6285898;22;20501;-86
2021/09/01 06:00:08;;;;;;;29.83;26.87;;;14.70;99.90;;;;;;6277010;22;20405;-84
2021/09/01 06:02:51;;;;;;;29.33;26.53;;;14.60;99.90;;;;;;6287326;22;20490;-85
2021/09/01 06:05:19;;;;;;;27.50;25.40;;;14.70;99.90;;;;;;6287079;22;20414;-85
2021/09/01 06:07:52;;;;;;;26.50;24.20;;;14.80;99.90;;;;;;6286644;22;20441;-88
2021/09/01 06:10:22;;;;;;;27.00;24.27;;;14.80;99.90;;;;;;6286958;22;20493;-85
2021/09/01 06:12:55;;;;;;;24.87;20.10;;;14.80;99.90;;;;;;6275167;22;20476;-85
2021/09/01 06:15:24;;;;;;;22.93;19.90;;;14.90;99.90;;;;;;6276757;22;20399;-86
2021/09/01 06:17:51;;;;;;;19.60;17.60;;;15.00;99.90;;;;;;6276441;22;20914;-83
2021/09/01 06:20:18;;;;;;;22.20;16.77;;;14.90;99.90;;;;;;6286815;22;20886;-85
2021/09/01 06:22:46;;;;;;;16.17;14.40;;;15.10;99.90;;;;;;6285763;22;20466;-84
2021/09/01 06:25:13;;;;;;;20.33;15.60;;;15.00;99.90;;;;;;6276068;22;20394;-84
2021/09/01 06:27:43;;;;;;;23.63;14.77;;;15.10;99.90;;;;;;6274594;22;20435;-83
2021/09/01 06:30:14;;;;;;;18.80;15.60;;;15.20;99.90;;;;;;6276329;22;20437;-84
2021/09/01 06:32:46;;;;;;;30.50;15.43;;;15.20;99.90;;;;;;6286462;22;20497;-84
2021/09/01 06:35:13;;;;;;;18.67;15.27;;;15.20;99.90;;;;;;6286673;22;20837;-84
2021/09/01 06:37:42;;;;;;;18.47;13.17;;;15.20;99.90;;;;;;6287022;22;20493;-85
2021/09/01 06:40:13;;;;;;;16.27;13.30;;;15.40;99.90;;;;;;6276800;22;20401;-84
2021/09/01 06:42:40;;;;;;;18.23;13.43;;;15.40;99.90;;;;;;6275112;22;20396;-85
2021/09/01 06:45:10;;;;;;;14.50;12.80;;;15.50;99.90;;;;;;6276586;22;20396;-88
2021/09/01 06:47:43;;;;;;;23.53;11.83;;;15.50;99.90;;;;;;6286583;22;20409;-86
2021/09/01 06:50:12;;;;;;;16.90;10.60;;;15.60;99.90;;;;;;6276519;22;20467;-85
2021/09/01 06:52:39;;;;;;;19.40;10.67;;;15.50;99.90;;;;;;6276654;22;20928;-85
2021/09/01 06:55:11;;;;;;;17.63;11.20;;;15.60;99.90;;;;;;6286482;22;20415;-83
2021/09/01 06:57:39;;;;;;;12.90;10.10;;;15.60;99.90;;;;;;6285498;22;20415;-81
2021/09/01 07:03:40;;;;;;;17.97;11.30;;;15.50;99.90;;;;;;6230895;22;20887;-79
2021/09/01 07:06:36;;;;;;;18.00;10.30;;;15.50;99.90;;;;;;6276405;22;20435;-85
2021/09/01 07:09:17;;;;;;;16.30;12.30;;;15.60;99.90;;;;;;6286587;22;20435;-85
2021/09/01 07:11:54;;;;;;;;;;;;;;;;;;;;;
2021/09/01 07:14:23;;;;;;;17.57;10.50;;;15.60;99.90;;;;;;6286652;22;20958;-86
2021/09/01 07:16:56;;;;;;;17.40;11.57;;;15.70;99.90;;;;;;6282868;22;20411;-84
2021/09/01 07:19:31;;;;;;;18.23;12.93;;;15.80;99.90;;;;;;6284355;22;20407;-85
2021/09/01 07:22:00;;;;;;;21.17;12.83;;;15.80;99.90;;;;;;6275324;22;20471;-89
2021/09/01 07:24:27;;;;;;;17.23;10.40;;;15.70;99.90;;;;;;6274732;22;20443;-86
2021/09/01 07:26:55;;;;;;;19.80;11.27;;;16.00;99.90;;;;;;6283328;22;20408;-87
2021/09/01 07:29:30;;;;;;;25.33;11.47;;;16.00;99.90;;;;;;6284333;22;20444;-85
2021/09/01 07:32:17;;;;;;;15.77;10.13;;;16.10;99.90;;;;;;6284520;22;20478;-86
2021/09/01 07:34:48;;;;;;;19.13;10.07;;;16.20;99.90;;;;;;6275145;22;20415;-83
2021/09/01 07:37:27;;;;;;;;;;;;;;;;;;;;;
2021/09/01 07:40:03;;;;;;;20.83;10.93;;;16.30;99.90;;;;;;6275864;22;20448;-82
2021/09/01 07:42:44;;;;;;;18.60;10.57;;;16.50;99.90;;;;;;6285700;22;20403;-85
2021/09/01 07:45:18;;;;;;;17.77;10.60;;;16.40;99.90;;;;;;6277931;22;20398;-85
2021/09/01 07:47:50;;;;;;;16.60;9.70;;;16.30;99.00;;;;;;6278214;22;20401;-82
2021/09/01 07:50:27;;;;;;;15.90;8.30;;;16.40;98.70;;;;;;6277932;22;20455;-83
2021/09/01 07:53:06;;;;;;;17.65;11.70;;;16.20;97.20;;;;;;6277397;22;20432;-83
2021/09/01 07:55:35;;;;;;;20.07;10.80;;;16.10;99.60;;;;;;6286605;22;20161;-83
2021/09/01 07:58:04;;;;;;;17.27;8.30;;;16.10;98.10;;;;;;6277931;22;20430;-83
2021/09/01 08:00:43;;;;;;;15.00;7.77;;;16.10;98.80;;;;;;6288327;22;20468;-83
2021/09/01 08:03:14;;;;;;;12.33;8.67;;;16.10;97.40;;;;;;6277845;22;20396;-82
2021/09/01 08:05:51;;;;;;;18.80;9.30;;;16.00;99.40;;;;;;6288424;22;20411;-82
2021/09/01 08:08:20;;;;;;;14.63;7.83;;;16.00;96.80;;;;;;6287846;22;20944;-82
2021/09/01 08:11:05;;;;;;;17.73;9.77;;;16.20;98.60;;;;;;6286582;22;20800;-84
2021/09/01 08:13:48;;;;;;;15.57;8.83;;;16.00;98.00;;;;;;6273355;22;20423;-82
2021/09/01 08:16:19;;;;;;;24.83;10.00;;;15.90;98.30;;;;;;6288027;22;20768;-82
2021/09/01 08:18:46;;;;;;;18.47;11.60;;;16.00;99.40;;;;;;6288038;22;20942;-83
2021/09/01 08:21:25;;;;;;;18.43;9.17;;;16.10;99.90;;;;;;6288073;22;20739;-83
2021/09/01 08:24:09;;;;;;;15.90;10.27;;;16.00;98.90;;;;;;6287782;22;20425;-82
2021/09/01 08:26:43;;;;;;;14.50;10.10;;;16.10;99.30;;;;;;6286690;22;20413;-84
2021/09/01 08:29:16;;;;;;;14.17;9.30;;;16.10;99.90;;;;;;6287845;22;20755;-83
2021/09/01 08:31:50;;;;;;;22.47;9.77;;;16.10;99.00;;;;;;6277553;22;20406;-81
2021/09/01 08:34:18;;;;;;;14.40;10.37;;;16.10;98.40;;;;;;6287885;22;20491;-82
2021/09/01 08:36:47;;;;;;;16.47;9.63;;;16.10;99.40;;;;;;6287872;22;20437;-83
2021/09/01 08:39:25;;;;;;;16.20;9.30;;;16.10;98.80;;;;;;6287966;22;20788;-84
2021/09/01 08:42:03;;;;;;;15.37;8.60;;;16.20;99.50;;;;;;6286400;22;20411;-83
2021/09/01 08:44:37;;;;;;;13.90;9.43;;;16.10;97.70;;;;;;6277713;22;20868;-82
2021/09/01 08:47:05;;;;;;;19.37;10.17;;;16.20;99.90;;;;;;6277396;22;20407;-83
2021/09/01 08:49:57;;;;;;;12.73;8.53;;;16.30;98.90;;;;;;6277263;22;20422;-83
2021/09/01 08:52:51;;;;;;;19.07;9.30;;;16.20;96.90;;;;;;6287998;22;20462;-83
2021/09/01 08:55:28;;;;;;;17.20;9.07;;;16.30;97.30;;;;;;6277795;22;20396;-84
2021/09/01 08:58:01;;;;;;;10.40;8.23;;;16.30;98.50;;;;;;6287056;22;20412;-83
2021/09/01 09:00:28;;;;;;;23.33;11.23;;;16.20;97.00;;;;;;6277697;22;20410;-84
2021/09/01 09:02:57;;;;;;;17.63;9.73;;;16.40;97.30;;;;;;6277593;22;20404;-85
2021/09/01 09:05:33;;;;;;;18.20;8.47;;;16.40;97.40;;;;;;6277595;22;20872;-85
2021/09/01 09:08:18;;;;;;;16.40;8.40;;;16.40;96.60;;;;;;6287350;22;20432;-84
2021/09/01 09:10:59;;;;;;;14.67;9.33;;;16.40;96.80;;;;;;6285715;22;20446;-84
2021/09/01 09:13:41;;;;;;;24.30;9.40;;;16.60;97.10;;;;;;6287609;22;20412;-83
2021/09/01 09:16:25;;;;;;;;;;;;;;;;;;;;;
2021/09/01 09:19:04;;;;;;;14.63;8.20;;;16.50;96.20;;;;;;6287741;22;20399;-83
2021/09/01 09:22:10;;;;;;;16.50;8.40;;;16.50;95.80;;;;;;6277622;22;20451;-83
2021/09/01 09:34:34;;;;;;;33.00;8.80;;;16.70;95.60;;;;;;6221999;23;20487;-84
2021/09/01 09:37:09;;;;;;;15.50;7.43;;;16.80;94.60;;;;;;6223450;23;20750;-84
2021/09/01 09:39:47;;;;;;;16.67;8.57;;;16.70;93.70;;;;;;6223524;23;20479;-84
2021/09/01 09:42:29;;;;;;;17.47;8.60;;;16.80;95.40;;;;;;6272855;22;20941;-84
2021/09/01 09:45:29;;;;;;;19.73;8.40;;;16.80;94.20;;;;;;6318437;22;20405;-83
2021/09/01 09:47:59;;;;;;;15.33;7.30;;;16.80;94.20;;;;;;6318507;22;20411;-88
2021/09/01 09:50:36;;;;;;;17.33;9.20;;;16.90;93.20;;;;;;6317596;22;20735;-86
2021/09/01 09:53:13;;;;;;;16.57;7.70;;;16.80;93.00;;;;;;6318295;22;20412;-85
2021/09/01 09:55:40;;;;;;;16.83;8.77;;;16.80;92.50;;;;;;6306271;22;20440;-82
2021/09/01 09:58:09;;;;;;;14.47;7.40;;;16.90;91.60;;;;;;6318067;22;20405;-84
2021/09/01 10:00:44;;;;;;;12.40;6.37;;;16.80;92.20;;;;;;6308040;22;20437;-87
2021/09/01 10:03:31;;;;;;;12.10;6.27;;;16.70;91.60;;;;;;6308040;22;20476;-84
2021/09/01 10:06:24;;;;;;;14.77;7.57;;;16.60;90.30;;;;;;6307464;22;20479;-86
2021/09/01 10:09:15;;;;;;;12.03;7.53;;;16.50;91.10;;;;;;6317955;22;20429;-84
2021/09/01 10:15:07;;;;;;;17.60;7.20;;;16.40;88.20;;;;;;6172780;23;20418;-88
2021/09/01 10:17:42;;;;;;;13.10;7.67;;;16.60;90.50;;;;;;6183012;23;20845;-86
2021/09/01 10:24:21;;;;;;;13.03;7.20;;;16.60;90.30;;;;;;6082169;23;20465;-84
2021/09/01 10:27:29;;;;;;;13.73;5.93;;;16.60;90.20;;;;;;6067264;23;20426;-84
2021/09/01 10:30:08;;;;;;;14.63;7.30;;;16.60;90.00;;;;;;6280617;22;20440;-83
2021/09/01 10:36:57;;;;;;;16.50;5.83;;;16.70;90.30;;;;;;6213452;22;20826;-85
2021/09/01 10:40:08;;;;;;;12.83;6.00;;;16.90;90.00;;;;;;6307658;22;20757;-85
2021/09/01 10:42:45;;;;;;;11.60;5.40;;;16.90;88.30;;;;;;6316522;22;20404;-80
2021/09/01 10:45:49;;;;;;;12.43;5.97;;;16.90;83.70;;;;;;6307518;22;20403;-88
2021/09/01 10:48:18;;;;;;;10.53;4.77;;;16.80;83.20;;;;;;6317246;22;20758;-86
2021/09/01 10:50:49;;;;;;;8.50;3.80;;;16.80;81.20;;;;;;6317584;22;20465;-87
2021/09/01 10:53:29;;;;;;;14.73;6.13;;;17.00;83.40;;;;;;6317970;22;20493;-87
2021/09/01 10:56:07;;;;;;;9.63;5.07;;;17.00;80.30;;;;;;6316591;22;20416;-85
2021/09/01 10:58:43;;;;;;;12.63;5.37;;;17.10;79.70;;;;;;6307520;22;20400;-86
2021/09/01 11:02:01;;;;;;;14.70;6.03;;;17.00;81.10;;;;;;6307457;22;20767;-85
2021/09/01 11:05:08;;;;;;;8.47;5.10;;;17.10;79.20;;;;;;6284023;22;20416;-84
2021/09/01 11:07:47;;;;;;;16.57;7.50;;;17.00;77.40;;;;;;6293259;22;20409;-84
2021/09/01 11:10:29;;;;;;;19.07;6.80;;;17.00;78.10;;;;;;6317186;22;20979;-84
2021/09/01 11:13:32;;;;;;;14.70;5.80;;;17.20;78.30;;;;;;6306586;22;20398;-89
2021/09/01 11:33:13;;;;;;;14.93;5.93;;;17.80;71.30;;;;;;5903982;24;20913;-85
2021/09/01 11:47:39;;;;;;;11.97;6.40;;;17.50;72.80;;;;;;5929016;23;20469;-80
2021/09/01 11:59:08;;;;;;;;;;;;;;;;;;;;;
2021/09/01 12:02:12;;;;;;;17.13;7.70;;;17.40;68.70;;;;;;6230691;22;20910;-84
2021/09/01 12:05:11;;;;;;;14.83;7.23;;;17.60;70.70;;;;;;6286271;22;20398;-84
2021/09/01 12:11:08;;;;;;;13.77;7.33;;;17.60;66.40;;;;;;6260455;22;20450;-85
2021/09/01 12:13:58;;;;;;;;;;;;;;;;;;;;;
2021/09/01 12:16:34;;;;;;;17.83;8.60;;;17.40;65.10;;;;;;6286502;22;20509;-86
2021/09/01 12:19:07;;;;;;;18.50;9.30;;;17.40;67.70;;;;;;6276116;22;20400;-87
2021/09/01 12:22:02;;;;;;;21.40;11.80;;;17.30;62.60;;;;;;6286641;22;20407;-86
2021/09/01 12:28:02;;;;;;;30.00;10.33;;;17.50;62.80;;;;;;6271993;22;20414;-85
2021/09/01 12:37:28;;;;;;;17.70;8.10;;;17.70;66.10;;;;;;6151054;23;20422;-87
2021/09/01 12:40:01;;;;;;;14.97;7.60;;;17.50;67.40;;;;;;6163832;23;20490;-85
2021/09/01 12:42:36;;;;;;;20.70;8.60;;;17.40;66.50;;;;;;6246612;22;20410;-87
2021/09/01 12:45:10;;;;;;;17.30;10.23;;;17.40;68.00;;;;;;6288072;22;20478;-85
2021/09/01 12:51:29;;;;;;;23.40;12.37;;;17.40;64.50;;;;;;6273085;22;20439;-86
2021/09/01 12:54:13;;;;;;;18.70;9.73;;;17.60;63.30;;;;;;6287916;22;20489;-86
2021/09/01 12:56:56;;;;;;;18.13;9.60;;;17.40;62.30;;;;;;6286260;22;20415;-86
2021/09/01 12:59:44;;;;;;;17.47;8.60;;;17.30;64.10;;;;;;6272048;22;20795;-87
2021/09/01 13:02:41;;;;;;;21.03;8.90;;;17.40;65.50;;;;;;6287897;22;20415;-86
2021/09/01 13:05:44;;;;;;;19.73;8.77;;;17.50;66.50;;;;;;6287671;22;20435;-86
2021/09/01 13:08:46;;;;;;;;;;;;;;;;;;;;;
2021/09/01 13:14:37;;;;;;;23.90;12.17;;;17.50;67.90;;;;;;6213240;22;20804;-85
2021/09/01 13:17:10;;;;;;;23.93;12.30;;;17.50;63.80;;;;;;6133767;23;20482;-86
2021/09/01 13:19:43;;;;;;;21.83;10.80;;;17.50;64.70;;;;;;6260250;22;20926;-86
2021/09/01 13:22:29;;;;;;;21.90;10.50;;;17.50;65.60;;;;;;6287353;22;20404;-85
2021/09/01 13:25:43;;;;;;;20.37;10.67;;;17.70;64.70;;;;;;6275889;22;20878;-85
2021/09/01 13:28:16;;;;;;;26.23;13.10;;;17.60;61.60;;;;;;6287067;22;20421;-86
2021/09/01 13:31:00;;;;;;;20.53;11.67;;;17.70;63.00;;;;;;6277144;22;20542;-85
2021/09/01 13:43:09;;;;;;;31.40;13.57;;;18.00;63.10;;;;;;5948565;24;20421;-84
2021/09/01 13:46:09;;;;;;;40.93;18.13;;;18.00;62.90;;;;;;5962385;24;20465;-85
2021/09/01 13:52:17;;;;;;;38.43;22.40;;;17.90;59.20;;;;;;5866496;24;20522;-84
2021/09/01 13:55:20;;;;;;;46.20;20.93;;;17.90;58.50;;;;;;6070906;23;20424;-84
2021/09/01 15:09:23;;;;;;;39.40;21.57;;;17.90;53.80;;;;;;6055562;23;20458;-84
2021/09/01 15:11:50;;;;;;;38.80;22.83;;;17.80;53.00;;;;;;6039184;23;20448;-84
2021/09/01 15:14:22;;;;;;;47.77;26.70;;;17.70;54.40;;;;;;6103704;23;20408;-85
2021/09/01 15:28:14;;;;;;;;;;;;;;;;;;;;;
2021/09/01 15:31:04;;;;;;;29.90;15.03;;;17.60;57.50;;;;;;5835830;24;20428;-85
2021/09/01 16:06:02;;;;;;;22.87;11.20;;;17.00;65.40;;;;;;5881709;24;20497;-84
2021/09/01 16:08:30;;;;;;;23.73;12.03;;;17.10;67.50;;;;;;6008164;23;20453;-79
2021/09/01 16:11:28;;;;;;;19.57;10.43;;;17.10;67.50;;;;;;6017872;23;20429;-85
2021/09/01 16:40:20;;;;;;;;;;;;;;;;;;;;;
